sensor_id;sensor_type;location;lat;lon;timestamp;pressure;altitude;pressure_sealevel;temperature
20736;BMP180;10528;52.124;5.196;2022-11-20T00:01:26;101241.00;;;4.80
20736;BMP180;10528;52.124;5.196;2022-11-20T00:03:55;101236.00;;;4.80
20736;BMP180;10528;52.124;5.196;2022-11-20T00:06:23;101243.00;;;4.80
20736;BMP180;10528;52.124;5.196;2022-11-20T00:08:54;101256.00;;;4.70
20736;BMP180;10528;52.124;5.196;2022-11-20T00:11:24;101254.00;;;4.70
20736;BMP180;10528;52.124;5.196;2022-11-20T00:13:55;101258.00;;;4.70
20736;BMP180;10528;52.124;5.196;2022-11-20T00:16:26;101249.00;;;4.70
20736;BMP180;10528;52.124;5.196;2022-11-20T00:18:53;101251.00;;;4.70
20736;BMP180;10528;52.124;5.196;2022-11-20T00:21:26;101246.00;;;4.70
20736;BMP180;10528;52.124;5.196;2022-11-20T00:23:56;101256.00;;;4.70
20736;BMP180;10528;52.124;5.196;2022-11-20T00:26:25;101245.00;;;4.60
20736;BMP180;10528;52.124;5.196;2022-11-20T00:28:56;101241.00;;;4.60
20736;BMP180;10528;52.124;5.196;2022-11-20T00:31:23;101234.00;;;4.60
20736;BMP180;10528;52.124;5.196;2022-11-20T00:33:51;101232.00;;;4.60
20736;BMP180;10528;52.124;5.196;2022-11-20T00:36:25;101221.00;;;4.60
20736;BMP180;10528;52.124;5.196;2022-11-20T00:38:55;101222.00;;;4.60
20736;BMP180;10528;52.124;5.196;2022-11-20T00:41:23;101222.00;;;4.60
20736;BMP180;10528;52.124;5.196;2022-11-20T00:43:55;101217.00;;;4.60
20736;BMP180;10528;52.124;5.196;2022-11-20T00:46:25;101215.00;;;4.50
20736;BMP180;10528;52.124;5.196;2022-11-20T00:48:53;101214.00;;;4.50
20736;BMP180;10528;52.124;5.196;2022-11-20T00:51:23;101221.00;;;4.50
20736;BMP180;10528;52.124;5.196;2022-11-20T00:53:51;101205.00;;;4.50
20736;BMP180;10528;52.124;5.196;2022-11-20T00:56:19;101222.00;;;4.50
20736;BMP180;10528;52.124;5.196;2022-11-20T00:58:48;101218.00;;;4.50
20736;BMP180;10528;52.124;5.196;2022-11-20T01:01:21;101218.00;;;4.40
20736;BMP180;10528;52.124;5.196;2022-11-20T01:03:54;101209.00;;;4.40
20736;BMP180;10528;52.124;5.196;2022-11-20T01:08:54;101224.00;;;4.40
20736;BMP180;10528;52.124;5.196;2022-11-20T01:11:26;101228.00;;;4.40
20736;BMP180;10528;52.124;5.196;2022-11-20T01:13:55;101212.00;;;4.40
20736;BMP180;10528;52.124;5.196;2022-11-20T01:16:37;101224.00;;;4.30
20736;BMP180;10528;52.124;5.196;2022-11-20T01:19:09;101226.00;;;4.30
20736;BMP180;10528;52.124;5.196;2022-11-20T01:21:45;101216.00;;;4.30
20736;BMP180;10528;52.124;5.196;2022-11-20T01:24:16;101217.00;;;4.30
20736;BMP180;10528;52.124;5.196;2022-11-20T01:26:46;101216.00;;;4.30
20736;BMP180;10528;52.124;5.196;2022-11-20T01:29:20;101208.00;;;4.30
20736;BMP180;10528;52.124;5.196;2022-11-20T01:31:48;101205.00;;;4.30
20736;BMP180;10528;52.124;5.196;2022-11-20T01:34:19;101205.00;;;4.20
20736;BMP180;10528;52.124;5.196;2022-11-20T01:36:46;101191.00;;;4.20
20736;BMP180;10528;52.124;5.196;2022-11-20T01:39:20;101193.00;;;4.20
20736;BMP180;10528;52.124;5.196;2022-11-20T01:41:50;101193.00;;;4.20
20736;BMP180;10528;52.124;5.196;2022-11-20T01:44:59;101209.00;;;4.20
20736;BMP180;10528;52.124;5.196;2022-11-20T01:47:33;101209.00;;;4.20
20736;BMP180;10528;52.124;5.196;2022-11-20T01:50:26;101202.00;;;4.10
20736;BMP180;10528;52.124;5.196;2022-11-20T01:53:02;101195.00;;;4.10
20736;BMP180;10528;52.124;5.196;2022-11-20T01:55:35;101204.00;;;4.10
20736;BMP180;10528;52.124;5.196;2022-11-20T01:58:04;101206.00;;;4.10
20736;BMP180;10528;52.124;5.196;2022-11-20T02:00:31;101204.00;;;4.10
20736;BMP180;10528;52.124;5.196;2022-11-20T02:03:03;101214.00;;;4.10
20736;BMP180;10528;52.124;5.196;2022-11-20T02:05:43;101207.00;;;4.10
20736;BMP180;10528;52.124;5.196;2022-11-20T02:08:12;101208.00;;;4.00
20736;BMP180;10528;52.124;5.196;2022-11-20T02:10:39;101196.00;;;4.00
20736;BMP180;10528;52.124;5.196;2022-11-20T02:13:06;101200.00;;;4.00
20736;BMP180;10528;52.124;5.196;2022-11-20T02:15:52;101186.00;;;4.00
20736;BMP180;10528;52.124;5.196;2022-11-20T02:18:21;101178.00;;;3.90
20736;BMP180;10528;52.124;5.196;2022-11-20T02:20:59;101184.00;;;3.90
20736;BMP180;10528;52.124;5.196;2022-11-20T02:23:39;101171.00;;;3.90
20736;BMP180;10528;52.124;5.196;2022-11-20T02:26:14;101169.00;;;3.90
20736;BMP180;10528;52.124;5.196;2022-11-20T02:28:42;101173.00;;;3.90
20736;BMP180;10528;52.124;5.196;2022-11-20T02:31:09;101175.00;;;3.90
20736;BMP180;10528;52.124;5.196;2022-11-20T02:33:35;101169.00;;;3.90
20736;BMP180;10528;52.124;5.196;2022-11-20T02:36:03;101176.00;;;3.80
20736;BMP180;10528;52.124;5.196;2022-11-20T02:38:29;101178.00;;;3.80
20736;BMP180;10528;52.124;5.196;2022-11-20T02:40:56;101171.00;;;3.80
20736;BMP180;10528;52.124;5.196;2022-11-20T02:43:23;101176.00;;;3.80
20736;BMP180;10528;52.124;5.196;2022-11-20T02:45:50;101181.00;;;3.80
20736;BMP180;10528;52.124;5.196;2022-11-20T02:48:17;101179.00;;;3.80
20736;BMP180;10528;52.124;5.196;2022-11-20T02:50:44;101178.00;;;3.80
20736;BMP180;10528;52.124;5.196;2022-11-20T02:53:10;101171.00;;;3.80
20736;BMP180;10528;52.124;5.196;2022-11-20T02:55:37;101171.00;;;3.80
20736;BMP180;10528;52.124;5.196;2022-11-20T02:58:04;101165.00;;;3.80
20736;BMP180;10528;52.124;5.196;2022-11-20T03:00:31;101167.00;;;3.80
20736;BMP180;10528;52.124;5.196;2022-11-20T03:02:58;101164.00;;;3.70
20736;BMP180;10528;52.124;5.196;2022-11-20T03:05:25;101160.00;;;3.70
20736;BMP180;10528;52.124;5.196;2022-11-20T03:07:52;101157.00;;;3.70
20736;BMP180;10528;52.124;5.196;2022-11-20T03:10:18;101159.00;;;3.70
20736;BMP180;10528;52.124;5.196;2022-11-20T03:12:45;101162.00;;;3.70
20736;BMP180;10528;52.124;5.196;2022-11-20T03:15:12;101152.00;;;3.70
20736;BMP180;10528;52.124;5.196;2022-11-20T03:17:39;101147.00;;;3.70
20736;BMP180;10528;52.124;5.196;2022-11-20T03:20:07;101153.00;;;3.70
20736;BMP180;10528;52.124;5.196;2022-11-20T03:22:34;101152.00;;;3.60
20736;BMP180;10528;52.124;5.196;2022-11-20T03:25:00;101137.00;;;3.60
20736;BMP180;10528;52.124;5.196;2022-11-20T03:27:33;101141.00;;;3.60
20736;BMP180;10528;52.124;5.196;2022-11-20T03:30:01;101142.00;;;3.60
20736;BMP180;10528;52.124;5.196;2022-11-20T03:32:28;101151.00;;;3.60
20736;BMP180;10528;52.124;5.196;2022-11-20T03:34:54;101151.00;;;3.50
20736;BMP180;10528;52.124;5.196;2022-11-20T03:37:21;101152.00;;;3.50
20736;BMP180;10528;52.124;5.196;2022-11-20T03:39:48;101141.00;;;3.50
20736;BMP180;10528;52.124;5.196;2022-11-20T03:42:15;101135.00;;;3.50
20736;BMP180;10528;52.124;5.196;2022-11-20T03:45:00;101142.00;;;3.50
20736;BMP180;10528;52.124;5.196;2022-11-20T03:47:27;101139.00;;;3.40
20736;BMP180;10528;52.124;5.196;2022-11-20T03:49:53;101135.00;;;3.40
20736;BMP180;10528;52.124;5.196;2022-11-20T03:52:20;101131.00;;;3.40
20736;BMP180;10528;52.124;5.196;2022-11-20T03:54:47;101134.00;;;3.40
20736;BMP180;10528;52.124;5.196;2022-11-20T03:57:14;101131.00;;;3.40
20736;BMP180;10528;52.124;5.196;2022-11-20T03:59:41;101125.00;;;3.40
20736;BMP180;10528;52.124;5.196;2022-11-20T04:02:07;101114.00;;;3.40
20736;BMP180;10528;52.124;5.196;2022-11-20T04:04:34;101114.00;;;3.30
20736;BMP180;10528;52.124;5.196;2022-11-20T04:07:02;101115.00;;;3.30
20736;BMP180;10528;52.124;5.196;2022-11-20T04:09:29;101110.00;;;3.30
20736;BMP180;10528;52.124;5.196;2022-11-20T04:11:56;101103.00;;;3.30
20736;BMP180;10528;52.124;5.196;2022-11-20T04:14:22;101095.00;;;3.30
20736;BMP180;10528;52.124;5.196;2022-11-20T04:16:49;101095.00;;;3.30
20736;BMP180;10528;52.124;5.196;2022-11-20T04:19:16;101089.00;;;3.20
20736;BMP180;10528;52.124;5.196;2022-11-20T04:21:44;101105.00;;;3.20
20736;BMP180;10528;52.124;5.196;2022-11-20T04:24:11;101093.00;;;3.20
20736;BMP180;10528;52.124;5.196;2022-11-20T04:26:39;101103.00;;;3.20
20736;BMP180;10528;52.124;5.196;2022-11-20T04:29:06;101102.00;;;3.20
20736;BMP180;10528;52.124;5.196;2022-11-20T04:31:34;101087.00;;;3.20
20736;BMP180;10528;52.124;5.196;2022-11-20T04:34:06;101080.00;;;3.20
20736;BMP180;10528;52.124;5.196;2022-11-20T04:36:34;101083.00;;;3.10
20736;BMP180;10528;52.124;5.196;2022-11-20T04:39:05;101086.00;;;3.10
20736;BMP180;10528;52.124;5.196;2022-11-20T04:41:35;101087.00;;;3.10
20736;BMP180;10528;52.124;5.196;2022-11-20T04:44:05;101095.00;;;3.10
20736;BMP180;10528;52.124;5.196;2022-11-20T04:46:37;101095.00;;;3.10
20736;BMP180;10528;52.124;5.196;2022-11-20T04:49:04;101091.00;;;3.10
20736;BMP180;10528;52.124;5.196;2022-11-20T04:51:32;101093.00;;;3.10
20736;BMP180;10528;52.124;5.196;2022-11-20T04:53:59;101085.00;;;3.10
20736;BMP180;10528;52.124;5.196;2022-11-20T04:56:26;101085.00;;;3.00
20736;BMP180;10528;52.124;5.196;2022-11-20T04:58:53;101075.00;;;3.00
20736;BMP180;10528;52.124;5.196;2022-11-20T05:01:23;101075.00;;;3.00
20736;BMP180;10528;52.124;5.196;2022-11-20T05:03:50;101072.00;;;3.00
20736;BMP180;10528;52.124;5.196;2022-11-20T05:06:20;101053.00;;;3.00
20736;BMP180;10528;52.124;5.196;2022-11-20T05:08:48;101058.00;;;3.00
20736;BMP180;10528;52.124;5.196;2022-11-20T05:11:20;101061.00;;;2.90
20736;BMP180;10528;52.124;5.196;2022-11-20T05:13:48;101058.00;;;2.90
20736;BMP180;10528;52.124;5.196;2022-11-20T05:16:19;101057.00;;;2.90
20736;BMP180;10528;52.124;5.196;2022-11-20T05:18:47;101066.00;;;2.90
20736;BMP180;10528;52.124;5.196;2022-11-20T05:21:15;101066.00;;;2.90
20736;BMP180;10528;52.124;5.196;2022-11-20T05:23:43;101062.00;;;2.90
20736;BMP180;10528;52.124;5.196;2022-11-20T05:26:17;101052.00;;;2.80
20736;BMP180;10528;52.124;5.196;2022-11-20T05:28:45;101046.00;;;2.80
20736;BMP180;10528;52.124;5.196;2022-11-20T05:31:16;101044.00;;;2.80
20736;BMP180;10528;52.124;5.196;2022-11-20T05:33:51;101050.00;;;2.80
20736;BMP180;10528;52.124;5.196;2022-11-20T05:36:17;101048.00;;;2.80
20736;BMP180;10528;52.124;5.196;2022-11-20T05:38:45;101049.00;;;2.80
20736;BMP180;10528;52.124;5.196;2022-11-20T05:41:19;101056.00;;;2.80
20736;BMP180;10528;52.124;5.196;2022-11-20T05:43:48;101050.00;;;2.80
20736;BMP180;10528;52.124;5.196;2022-11-20T05:46:20;101054.00;;;2.80
20736;BMP180;10528;52.124;5.196;2022-11-20T05:48:54;101055.00;;;2.80
20736;BMP180;10528;52.124;5.196;2022-11-20T05:51:22;101056.00;;;2.70
20736;BMP180;10528;52.124;5.196;2022-11-20T05:53:48;101054.00;;;2.80
20736;BMP180;10528;52.124;5.196;2022-11-20T05:56:19;101063.00;;;2.70
20736;BMP180;10528;52.124;5.196;2022-11-20T05:58:47;101072.00;;;2.70
20736;BMP180;10528;52.124;5.196;2022-11-20T06:01:22;101079.00;;;2.70
20736;BMP180;10528;52.124;5.196;2022-11-20T06:03:49;101072.00;;;2.70
20736;BMP180;10528;52.124;5.196;2022-11-20T06:06:18;101089.00;;;2.70
20736;BMP180;10528;52.124;5.196;2022-11-20T06:08:46;101074.00;;;2.70
20736;BMP180;10528;52.124;5.196;2022-11-20T06:11:14;101082.00;;;2.70
20736;BMP180;10528;52.124;5.196;2022-11-20T06:13:42;101087.00;;;2.70
20736;BMP180;10528;52.124;5.196;2022-11-20T06:16:12;101077.00;;;2.70
20736;BMP180;10528;52.124;5.196;2022-11-20T06:18:39;101082.00;;;2.70
20736;BMP180;10528;52.124;5.196;2022-11-20T06:21:13;101072.00;;;2.70
20736;BMP180;10528;52.124;5.196;2022-11-20T06:23:41;101067.00;;;2.70
20736;BMP180;10528;52.124;5.196;2022-11-20T06:26:11;101072.00;;;2.70
20736;BMP180;10528;52.124;5.196;2022-11-20T06:28:39;101078.00;;;2.70
20736;BMP180;10528;52.124;5.196;2022-11-20T06:31:07;101070.00;;;2.70
20736;BMP180;10528;52.124;5.196;2022-11-20T06:33:34;101069.00;;;2.70
20736;BMP180;10528;52.124;5.196;2022-11-20T06:36:02;101078.00;;;2.70
20736;BMP180;10528;52.124;5.196;2022-11-20T06:38:36;101060.00;;;2.70
20736;BMP180;10528;52.124;5.196;2022-11-20T06:41:05;101068.00;;;2.70
20736;BMP180;10528;52.124;5.196;2022-11-20T06:43:32;101072.00;;;2.70
20736;BMP180;10528;52.124;5.196;2022-11-20T06:45:59;101070.00;;;2.70
20736;BMP180;10528;52.124;5.196;2022-11-20T06:48:27;101067.00;;;2.70
20736;BMP180;10528;52.124;5.196;2022-11-20T06:50:55;101061.00;;;2.70
20736;BMP180;10528;52.124;5.196;2022-11-20T06:53:23;101062.00;;;2.70
20736;BMP180;10528;52.124;5.196;2022-11-20T06:55:51;101062.00;;;2.70
20736;BMP180;10528;52.124;5.196;2022-11-20T06:58:18;101069.00;;;2.70
20736;BMP180;10528;52.124;5.196;2022-11-20T07:00:45;101057.00;;;2.70
20736;BMP180;10528;52.124;5.196;2022-11-20T07:03:12;101049.00;;;2.70
20736;BMP180;10528;52.124;5.196;2022-11-20T07:05:39;101050.00;;;2.70
20736;BMP180;10528;52.124;5.196;2022-11-20T07:08:07;101045.00;;;2.70
20736;BMP180;10528;52.124;5.196;2022-11-20T07:10:34;101050.00;;;2.70
20736;BMP180;10528;52.124;5.196;2022-11-20T07:13:01;101050.00;;;2.70
20736;BMP180;10528;52.124;5.196;2022-11-20T07:15:29;101041.00;;;2.70
20736;BMP180;10528;52.124;5.196;2022-11-20T07:17:59;101034.00;;;2.70
20736;BMP180;10528;52.124;5.196;2022-11-20T07:20:27;101032.00;;;2.70
20736;BMP180;10528;52.124;5.196;2022-11-20T07:22:55;101035.00;;;2.70
20736;BMP180;10528;52.124;5.196;2022-11-20T07:25:24;101033.00;;;2.70
20736;BMP180;10528;52.124;5.196;2022-11-20T07:27:51;101020.00;;;2.70
20736;BMP180;10528;52.124;5.196;2022-11-20T07:30:18;101021.00;;;2.70
20736;BMP180;10528;52.124;5.196;2022-11-20T07:32:53;101038.00;;;2.70
20736;BMP180;10528;52.124;5.196;2022-11-20T07:35:20;101034.00;;;2.80
20736;BMP180;10528;52.124;5.196;2022-11-20T07:37:48;101039.00;;;2.80
20736;BMP180;10528;52.124;5.196;2022-11-20T07:40:17;101048.00;;;2.80
20736;BMP180;10528;52.124;5.196;2022-11-20T07:42:52;101050.00;;;2.80
20736;BMP180;10528;52.124;5.196;2022-11-20T07:45:22;101043.00;;;2.90
20736;BMP180;10528;52.124;5.196;2022-11-20T07:47:50;101052.00;;;2.90
20736;BMP180;10528;52.124;5.196;2022-11-20T07:50:18;101047.00;;;2.90
20736;BMP180;10528;52.124;5.196;2022-11-20T07:52:46;101037.00;;;3.00
20736;BMP180;10528;52.124;5.196;2022-11-20T07:55:13;101041.00;;;3.00
20736;BMP180;10528;52.124;5.196;2022-11-20T07:57:40;101050.00;;;3.10
20736;BMP180;10528;52.124;5.196;2022-11-20T08:00:09;101052.00;;;3.20
20736;BMP180;10528;52.124;5.196;2022-11-20T08:02:42;101036.00;;;3.20
20736;BMP180;10528;52.124;5.196;2022-11-20T08:05:09;101021.00;;;3.30
20736;BMP180;10528;52.124;5.196;2022-11-20T08:07:42;101023.00;;;3.40
20736;BMP180;10528;52.124;5.196;2022-11-20T08:10:12;101015.00;;;3.40
20736;BMP180;10528;52.124;5.196;2022-11-20T08:12:51;101027.00;;;3.50
20736;BMP180;10528;52.124;5.196;2022-11-20T08:15:39;101022.00;;;3.60
20736;BMP180;10528;52.124;5.196;2022-11-20T08:18:10;101022.00;;;3.60
20736;BMP180;10528;52.124;5.196;2022-11-20T08:21:03;101023.00;;;3.70
20736;BMP180;10528;52.124;5.196;2022-11-20T08:23:30;101018.00;;;3.80
20736;BMP180;10528;52.124;5.196;2022-11-20T08:25:57;101031.00;;;3.90
20736;BMP180;10528;52.124;5.196;2022-11-20T08:28:24;101031.00;;;4.00
20736;BMP180;10528;52.124;5.196;2022-11-20T08:30:50;101035.00;;;4.10
20736;BMP180;10528;52.124;5.196;2022-11-20T08:33:18;101027.00;;;4.10
20736;BMP180;10528;52.124;5.196;2022-11-20T08:35:45;101031.00;;;4.20
20736;BMP180;10528;52.124;5.196;2022-11-20T08:38:12;101034.00;;;4.30
20736;BMP180;10528;52.124;5.196;2022-11-20T08:40:39;101033.00;;;4.30
20736;BMP180;10528;52.124;5.196;2022-11-20T08:43:06;101031.00;;;4.40
20736;BMP180;10528;52.124;5.196;2022-11-20T08:45:33;101029.00;;;4.50
20736;BMP180;10528;52.124;5.196;2022-11-20T08:48:02;101030.00;;;4.50
20736;BMP180;10528;52.124;5.196;2022-11-20T08:50:30;101032.00;;;4.60
20736;BMP180;10528;52.124;5.196;2022-11-20T08:53:04;101046.00;;;4.70
20736;BMP180;10528;52.124;5.196;2022-11-20T08:55:32;101039.00;;;4.70
20736;BMP180;10528;52.124;5.196;2022-11-20T08:58:04;101037.00;;;4.80
20736;BMP180;10528;52.124;5.196;2022-11-20T09:00:33;101041.00;;;4.90
20736;BMP180;10528;52.124;5.196;2022-11-20T09:03:00;101034.00;;;4.90
20736;BMP180;10528;52.124;5.196;2022-11-20T09:05:28;101033.00;;;5.00
20736;BMP180;10528;52.124;5.196;2022-11-20T09:07:59;101022.00;;;5.00
20736;BMP180;10528;52.124;5.196;2022-11-20T09:10:27;101037.00;;;5.10
20736;BMP180;10528;52.124;5.196;2022-11-20T09:12:55;101017.00;;;5.10
20736;BMP180;10528;52.124;5.196;2022-11-20T09:15:24;101004.00;;;5.20
20736;BMP180;10528;52.124;5.196;2022-11-20T09:18:02;101019.00;;;5.20
20736;BMP180;10528;52.124;5.196;2022-11-20T09:20:31;101004.00;;;5.30
20736;BMP180;10528;52.124;5.196;2022-11-20T09:22:57;101012.00;;;5.40
20736;BMP180;10528;52.124;5.196;2022-11-20T09:25:24;101004.00;;;5.40
20736;BMP180;10528;52.124;5.196;2022-11-20T09:27:59;100988.00;;;5.50
20736;BMP180;10528;52.124;5.196;2022-11-20T09:30:26;100983.00;;;5.50
20736;BMP180;10528;52.124;5.196;2022-11-20T09:32:54;100983.00;;;5.60
20736;BMP180;10528;52.124;5.196;2022-11-20T09:35:21;100982.00;;;5.60
20736;BMP180;10528;52.124;5.196;2022-11-20T09:37:48;100988.00;;;5.70
20736;BMP180;10528;52.124;5.196;2022-11-20T09:40:28;100980.00;;;5.70
20736;BMP180;10528;52.124;5.196;2022-11-20T09:43:19;100964.00;;;5.80
20736;BMP180;10528;52.124;5.196;2022-11-20T09:46:14;100982.00;;;5.90
20736;BMP180;10528;52.124;5.196;2022-11-20T09:49:17;100975.00;;;5.90
20736;BMP180;10528;52.124;5.196;2022-11-20T09:55:08;100971.00;;;6.00
20736;BMP180;10528;52.124;5.196;2022-11-20T09:57:41;100979.00;;;6.10
20736;BMP180;10528;52.124;5.196;2022-11-20T10:00:14;100972.00;;;6.20
20736;BMP180;10528;52.124;5.196;2022-11-20T10:05:41;100955.00;;;6.30
20736;BMP180;10528;52.124;5.196;2022-11-20T10:08:22;100962.00;;;6.30
20736;BMP180;10528;52.124;5.196;2022-11-20T10:11:05;100956.00;;;6.40
20736;BMP180;10528;52.124;5.196;2022-11-20T10:13:39;100946.00;;;6.40
20736;BMP180;10528;52.124;5.196;2022-11-20T10:19:42;100948.00;;;6.50
20736;BMP180;10528;52.124;5.196;2022-11-20T10:22:36;100935.00;;;6.50
20736;BMP180;10528;52.124;5.196;2022-11-20T10:25:21;100929.00;;;6.60
20736;BMP180;10528;52.124;5.196;2022-11-20T10:28:34;100919.00;;;6.60
20736;BMP180;10528;52.124;5.196;2022-11-20T10:31:14;100913.00;;;6.60
20736;BMP180;10528;52.124;5.196;2022-11-20T10:33:45;100904.00;;;6.70
20736;BMP180;10528;52.124;5.196;2022-11-20T10:36:45;100898.00;;;6.70
20736;BMP180;10528;52.124;5.196;2022-11-20T10:39:33;100903.00;;;6.80
20736;BMP180;10528;52.124;5.196;2022-11-20T10:42:02;100901.00;;;6.80
20736;BMP180;10528;52.124;5.196;2022-11-20T10:44:29;100893.00;;;6.90
20736;BMP180;10528;52.124;5.196;2022-11-20T10:47:22;100892.00;;;6.90
20736;BMP180;10528;52.124;5.196;2022-11-20T10:49:53;100879.00;;;7.00
20736;BMP180;10528;52.124;5.196;2022-11-20T10:52:54;100865.00;;;7.00
20736;BMP180;10528;52.124;5.196;2022-11-20T11:01:23;100848.00;;;7.20
20736;BMP180;10528;52.124;5.196;2022-11-20T11:03:55;100833.00;;;7.20
20736;BMP180;10528;52.124;5.196;2022-11-20T11:06:36;100831.00;;;7.30
20736;BMP180;10528;52.124;5.196;2022-11-20T11:09:27;100817.00;;;7.30
20736;BMP180;10528;52.124;5.196;2022-11-20T11:11:58;100827.00;;;7.30
20736;BMP180;10528;52.124;5.196;2022-11-20T11:14:47;100830.00;;;7.40
20736;BMP180;10528;52.124;5.196;2022-11-20T11:17:28;100832.00;;;7.40
20736;BMP180;10528;52.124;5.196;2022-11-20T11:22:34;100819.00;;;7.50
20736;BMP180;10528;52.124;5.196;2022-11-20T11:25:20;100792.00;;;7.50
20736;BMP180;10528;52.124;5.196;2022-11-20T11:27:50;100796.00;;;7.50
20736;BMP180;10528;52.124;5.196;2022-11-20T11:30:19;100797.00;;;7.50
20736;BMP180;10528;52.124;5.196;2022-11-20T11:32:47;100790.00;;;7.50
20736;BMP180;10528;52.124;5.196;2022-11-20T11:35:27;100784.00;;;7.60
20736;BMP180;10528;52.124;5.196;2022-11-20T11:38:10;100779.00;;;7.60
20736;BMP180;10528;52.124;5.196;2022-11-20T11:40:40;100776.00;;;7.60
20736;BMP180;10528;52.124;5.196;2022-11-20T11:43:19;100775.00;;;7.60
20736;BMP180;10528;52.124;5.196;2022-11-20T11:54:58;100759.00;;;7.60
20736;BMP180;10528;52.124;5.196;2022-11-20T11:58:40;100761.00;;;7.70
20736;BMP180;10528;52.124;5.196;2022-11-20T12:00:39;100753.00;;;7.70
20736;BMP180;10528;52.124;5.196;2022-11-20T12:03:27;100739.00;;;7.70
20736;BMP180;10528;52.124;5.196;2022-11-20T12:06:05;100730.00;;;7.80
20736;BMP180;10528;52.124;5.196;2022-11-20T12:08:59;100735.00;;;7.80
20736;BMP180;10528;52.124;5.196;2022-11-20T12:11:46;100731.00;;;7.80
20736;BMP180;10528;52.124;5.196;2022-11-20T12:14:30;100731.00;;;7.80
20736;BMP180;10528;52.124;5.196;2022-11-20T12:17:01;100738.00;;;7.90
20736;BMP180;10528;52.124;5.196;2022-11-20T12:19:34;100722.00;;;7.90
20736;BMP180;10528;52.124;5.196;2022-11-20T12:30:32;100691.00;;;7.90
20736;BMP180;10528;52.124;5.196;2022-11-20T12:33:08;100689.00;;;7.90
20736;BMP180;10528;52.124;5.196;2022-11-20T12:41:51;100666.00;;;7.90
20736;BMP180;10528;52.124;5.196;2022-11-20T12:45:14;100664.00;;;7.80
20736;BMP180;10528;52.124;5.196;2022-11-20T12:54:30;100642.00;;;7.80
20736;BMP180;10528;52.124;5.196;2022-11-20T12:57:49;100636.00;;;7.80
20736;BMP180;10528;52.124;5.196;2022-11-20T13:00:21;100637.00;;;7.90
20736;BMP180;10528;52.124;5.196;2022-11-20T13:05:55;100641.00;;;8.00
20736;BMP180;10528;52.124;5.196;2022-11-20T13:08:42;100622.00;;;8.00
20736;BMP180;10528;52.124;5.196;2022-11-20T13:11:37;100621.00;;;8.10
20736;BMP180;10528;52.124;5.196;2022-11-20T13:14:31;100625.00;;;8.10
20736;BMP180;10528;52.124;5.196;2022-11-20T13:19:56;100612.00;;;8.10
20736;BMP180;10528;52.124;5.196;2022-11-20T13:22:49;100619.00;;;8.10
20736;BMP180;10528;52.124;5.196;2022-11-20T13:25:31;100618.00;;;8.10
20736;BMP180;10528;52.124;5.196;2022-11-20T13:28:04;100622.00;;;8.20
20736;BMP180;10528;52.124;5.196;2022-11-20T13:30:31;100617.00;;;8.20
20736;BMP180;10528;52.124;5.196;2022-11-20T13:33:25;100609.00;;;8.20
20736;BMP180;10528;52.124;5.196;2022-11-20T13:36:19;100606.00;;;8.20
20736;BMP180;10528;52.124;5.196;2022-11-20T13:38:50;100599.00;;;8.20
20736;BMP180;10528;52.124;5.196;2022-11-20T13:41:32;100588.00;;;8.20
20736;BMP180;10528;52.124;5.196;2022-11-20T13:44:30;100586.00;;;8.30
20736;BMP180;10528;52.124;5.196;2022-11-20T13:47:01;100569.00;;;8.30
20736;BMP180;10528;52.124;5.196;2022-11-20T13:49:39;100569.00;;;8.20
20736;BMP180;10528;52.124;5.196;2022-11-20T13:52:44;100571.00;;;8.20
20736;BMP180;10528;52.124;5.196;2022-11-20T13:58:28;100581.00;;;8.20
20736;BMP180;10528;52.124;5.196;2022-11-20T14:01:09;100566.00;;;8.30
20736;BMP180;10528;52.124;5.196;2022-11-20T14:03:38;100541.00;;;8.30
20736;BMP180;10528;52.124;5.196;2022-11-20T14:06:32;100534.00;;;8.30
20736;BMP180;10528;52.124;5.196;2022-11-20T14:08:59;100515.00;;;8.30
20736;BMP180;10528;52.124;5.196;2022-11-20T14:11:29;100489.00;;;8.20
20736;BMP180;10528;52.124;5.196;2022-11-20T14:16:50;100529.00;;;8.20
20736;BMP180;10528;52.124;5.196;2022-11-20T14:21:53;100496.00;;;8.30
20736;BMP180;10528;52.124;5.196;2022-11-20T14:24:23;100487.00;;;8.30
20736;BMP180;10528;52.124;5.196;2022-11-20T14:26:52;100491.00;;;8.40
20736;BMP180;10528;52.124;5.196;2022-11-20T14:29:29;100493.00;;;8.40
20736;BMP180;10528;52.124;5.196;2022-11-20T14:31:56;100489.00;;;8.40
20736;BMP180;10528;52.124;5.196;2022-11-20T14:34:27;100484.00;;;8.40
20736;BMP180;10528;52.124;5.196;2022-11-20T14:37:05;100485.00;;;8.40
20736;BMP180;10528;52.124;5.196;2022-11-20T14:39:47;100483.00;;;8.40
20736;BMP180;10528;52.124;5.196;2022-11-20T14:42:24;100472.00;;;8.40
20736;BMP180;10528;52.124;5.196;2022-11-20T14:44:57;100479.00;;;8.50
20736;BMP180;10528;52.124;5.196;2022-11-20T14:47:30;100472.00;;;8.50
20736;BMP180;10528;52.124;5.196;2022-11-20T14:49:59;100455.00;;;8.50
20736;BMP180;10528;52.124;5.196;2022-11-20T14:52:34;100469.00;;;8.50
20736;BMP180;10528;52.124;5.196;2022-11-20T14:55:01;100459.00;;;8.50
20736;BMP180;10528;52.124;5.196;2022-11-20T14:57:35;100455.00;;;8.50
20736;BMP180;10528;52.124;5.196;2022-11-20T15:00:20;100448.00;;;8.50
20736;BMP180;10528;52.124;5.196;2022-11-20T15:02:50;100444.00;;;8.50
20736;BMP180;10528;52.124;5.196;2022-11-20T15:05:22;100456.00;;;8.50
20736;BMP180;10528;52.124;5.196;2022-11-20T15:08:04;100453.00;;;8.50
20736;BMP180;10528;52.124;5.196;2022-11-20T15:10:32;100442.00;;;8.60
20736;BMP180;10528;52.124;5.196;2022-11-20T15:13:16;100443.00;;;8.60
20736;BMP180;10528;52.124;5.196;2022-11-20T15:15:49;100433.00;;;8.60
20736;BMP180;10528;52.124;5.196;2022-11-20T15:18:28;100421.00;;;8.50
20736;BMP180;10528;52.124;5.196;2022-11-20T15:21:02;100413.00;;;8.50
20736;BMP180;10528;52.124;5.196;2022-11-20T15:23:30;100410.00;;;8.40
20736;BMP180;10528;52.124;5.196;2022-11-20T15:25:57;100404.00;;;8.40
20736;BMP180;10528;52.124;5.196;2022-11-20T15:28:47;100386.00;;;8.40
20736;BMP180;10528;52.124;5.196;2022-11-20T15:31:20;100398.00;;;8.30
20736;BMP180;10528;52.124;5.196;2022-11-20T15:33:48;100388.00;;;8.30
20736;BMP180;10528;52.124;5.196;2022-11-20T15:36:16;100383.00;;;8.30
20736;BMP180;10528;52.124;5.196;2022-11-20T15:38:42;100381.00;;;8.30
20736;BMP180;10528;52.124;5.196;2022-11-20T15:41:09;100367.00;;;8.30
20736;BMP180;10528;52.124;5.196;2022-11-20T15:43:37;100365.00;;;8.20
20736;BMP180;10528;52.124;5.196;2022-11-20T15:46:25;100355.00;;;8.20